Time;durP1;ratioP1;P1;durP2;ratioP2;P2;SDS_P1;SDS_P2;PMS_P1;PMS_P2;Temp;Humidity;BMP_temperature;BMP_pressure;BME280_temperature;BME280_humidity;BME280_pressure;Samples;Min_cycle;Max_cycle;Signal;HPM_P1;HPM_P2
2022/07/24 00:01:58;;;;;;;9.75;3.25;;;16.70;99.90;;;;;;5020699;28;219080;-66
2022/07/24 00:04:24;;;;;;;9.55;3.35;;;16.60;99.90;;;;;;5036014;28;266491;-66
2022/07/24 00:06:51;;;;;;;8.38;3.17;;;16.60;99.90;;;;;;5001570;28;207486;-65
2022/07/24 00:09:17;;;;;;;8.60;3.10;;;16.50;99.90;;;;;;5050133;28;203762;-66
2022/07/24 00:11:43;;;;;;;7.70;3.17;;;16.50;99.90;;;;;;5020670;28;213618;-66
2022/07/24 00:14:10;;;;;;;10.43;3.38;;;16.60;99.90;;;;;;5051126;28;272467;-66
2022/07/24 00:16:36;;;;;;;10.43;3.20;;;16.50;99.90;;;;;;5029996;28;209390;-66
2022/07/24 00:19:03;;;;;;;8.02;2.90;;;16.50;99.90;;;;;;5055247;28;265737;-66
2022/07/24 00:21:29;;;;;;;8.48;3.00;;;16.40;99.90;;;;;;5028707;28;209791;-66
2022/07/24 00:23:55;;;;;;;8.07;3.50;;;16.40;99.90;;;;;;5051385;28;115675;-65
2022/07/24 00:26:21;;;;;;;9.02;3.40;;;16.40;99.90;;;;;;5040286;28;208217;-66
2022/07/24 00:28:48;;;;;;;7.97;3.20;;;16.40;99.90;;;;;;5042362;28;135355;-66
2022/07/24 00:31:14;;;;;;;11.55;3.83;;;16.40;99.90;;;;;;5028622;28;211353;-66
2022/07/24 00:33:41;;;;;;;8.30;3.33;;;16.30;99.90;;;;;;5044408;28;109987;-66
2022/07/24 00:36:07;;;;;;;8.50;3.45;;;16.30;99.90;;;;;;5014989;28;208855;-66
2022/07/24 00:38:33;;;;;;;8.40;3.53;;;16.30;99.90;;;;;;5060678;28;264927;-65
2022/07/24 00:41:00;;;;;;;7.88;3.33;;;16.30;99.90;;;;;;5030699;28;208964;-66
2022/07/24 00:43:26;;;;;;;8.18;3.63;;;16.30;99.90;;;;;;5046055;28;266809;-66
2022/07/24 00:45:52;;;;;;;9.02;3.35;;;16.30;99.90;;;;;;5027644;28;213925;-67
2022/07/24 00:48:18;;;;;;;8.05;3.38;;;16.30;99.90;;;;;;5057042;28;274922;-66
2022/07/24 00:50:44;;;;;;;10.02;3.58;;;16.30;99.90;;;;;;5040249;28;212948;-65
2022/07/24 00:53:11;;;;;;;8.73;3.50;;;16.30;99.90;;;;;;5077497;28;20048;-66
2022/07/24 00:55:37;;;;;;;9.83;3.50;;;16.30;99.90;;;;;;4997503;28;210457;-65
2022/07/24 00:58:03;;;;;;;9.43;3.70;;;16.30;99.90;;;;;;5080199;28;20053;-66
2022/07/24 01:00:30;;;;;;;8.27;3.70;;;16.30;99.90;;;;;;5003631;28;214357;-66
2022/07/24 01:02:56;;;;;;;9.93;3.70;;;16.20;99.90;;;;;;5082069;28;20048;-66
2022/07/24 01:05:22;;;;;;;7.90;3.50;;;16.30;99.90;;;;;;5049466;28;260128;-66
2022/07/24 01:07:49;;;;;;;9.73;3.83;;;16.30;99.90;;;;;;5007443;28;206300;-66
2022/07/24 01:10:15;;;;;;;9.20;4.00;;;16.20;99.90;;;;;;5065239;28;256148;-66
2022/07/24 01:12:41;;;;;;;10.68;4.32;;;16.20;99.90;;;;;;5032504;28;216747;-67
2022/07/24 01:15:09;;;;;;;9.13;3.58;;;16.20;99.90;;;;;;5062655;28;267284;-66
2022/07/24 01:17:40;;;;;;;9.70;4.13;;;16.20;99.90;;;;;;5045337;28;213758;-66
2022/07/24 01:20:07;;;;;;;9.60;3.90;;;16.20;99.90;;;;;;5065274;28;262735;-66
2022/07/24 01:22:34;;;;;;;8.15;3.70;;;16.20;99.90;;;;;;5032749;28;208945;-66
2022/07/24 01:25:00;;;;;;;8.60;3.60;;;16.20;99.90;;;;;;5051677;28;243648;-66
2022/07/24 01:27:26;;;;;;;8.15;3.88;;;16.10;99.90;;;;;;5033749;28;209647;-65
2022/07/24 01:29:52;;;;;;;8.07;4.18;;;16.20;99.90;;;;;;5051790;28;215397;-66
2022/07/24 01:32:18;;;;;;;8.65;4.05;;;16.10;99.90;;;;;;5033104;28;211302;-68
2022/07/24 01:34:45;;;;;;;8.02;3.67;;;16.10;99.90;;;;;;5060966;28;268839;-66
2022/07/24 01:37:11;;;;;;;8.52;4.00;;;16.10;99.90;;;;;;5034849;28;227867;-66
2022/07/24 01:39:37;;;;;;;9.05;4.07;;;16.10;99.90;;;;;;5061119;28;262203;-65
2022/07/24 01:42:03;;;;;;;8.88;4.13;;;16.10;99.90;;;;;;5045781;28;209348;-65
2022/07/24 01:44:29;;;;;;;9.73;3.90;;;16.10;99.90;;;;;;5054255;28;252997;-66
2022/07/24 01:46:55;;;;;;;8.88;4.53;;;16.10;99.90;;;;;;5028201;28;207788;-65
2022/07/24 01:49:22;;;;;;;9.85;4.75;;;16.10;99.90;;;;;;5065066;28;256815;-66
2022/07/24 01:51:48;;;;;;;10.00;4.60;;;16.00;99.90;;;;;;5027661;28;211028;-66
2022/07/24 01:54:14;;;;;;;9.13;4.38;;;16.00;99.90;;;;;;5055351;28;221452;-66
2022/07/24 01:56:40;;;;;;;10.57;4.80;;;16.00;99.90;;;;;;5037482;28;214278;-66
2022/07/24 01:59:06;;;;;;;12.45;4.90;;;16.00;99.90;;;;;;5064555;28;260044;-65
2022/07/24 02:01:33;;;;;;;9.38;4.68;;;16.00;99.90;;;;;;5037907;28;209786;-67
2022/07/24 02:03:59;;;;;;;9.43;5.00;;;16.00;99.90;;;;;;5043985;28;132200;-66
2022/07/24 02:06:25;;;;;;;11.40;5.03;;;16.00;99.90;;;;;;5029109;28;233164;-66
2022/07/24 02:08:51;;;;;;;10.73;5.05;;;16.00;99.90;;;;;;5064413;28;264201;-66
2022/07/24 02:11:18;;;;;;;8.85;5.00;;;16.00;99.90;;;;;;5017238;28;209131;-66
2022/07/24 02:13:46;;;;;;;10.65;5.35;;;16.00;99.90;;;;;;5058428;28;89357;-66
2022/07/24 02:16:12;;;;;;;11.18;5.28;;;16.00;99.90;;;;;;5037305;28;211836;-64
2022/07/24 02:18:38;;;;;;;10.50;5.40;;;15.90;99.90;;;;;;5064876;28;255569;-65
2022/07/24 02:21:04;;;;;;;9.93;5.53;;;16.00;99.90;;;;;;5038274;28;213488;-65
2022/07/24 02:23:30;;;;;;;8.73;5.15;;;15.90;99.90;;;;;;5064256;28;265825;-66
2022/07/24 02:25:56;;;;;;;10.43;5.22;;;15.90;99.90;;;;;;5036424;28;208331;-65
2022/07/24 02:28:22;;;;;;;10.30;5.50;;;15.90;99.90;;;;;;5064225;28;263058;-66
2022/07/24 02:30:49;;;;;;;9.82;5.60;;;15.90;99.90;;;;;;5032064;28;209039;-67
2022/07/24 02:33:15;;;;;;;12.95;5.28;;;15.90;99.90;;;;;;5051955;28;272751;-65
2022/07/24 02:35:41;;;;;;;10.50;5.57;;;15.90;99.90;;;;;;5043560;28;212732;-65
2022/07/24 02:38:08;;;;;;;12.35;5.22;;;15.90;99.90;;;;;;5084403;28;20048;-66
2022/07/24 02:40:34;;;;;;;11.13;5.72;;;15.90;99.90;;;;;;5018344;28;267685;-66
2022/07/24 02:43:00;;;;;;;10.85;6.05;;;15.90;99.90;;;;;;5085074;28;20045;-66
2022/07/24 02:45:27;;;;;;;14.38;5.60;;;15.90;99.90;;;;;;5033087;28;210661;-64
2022/07/24 02:47:55;;;;;;;10.20;5.15;;;15.90;99.90;;;;;;5071436;28;79428;-65
2022/07/24 02:50:24;;;;;;;10.02;5.70;;;15.90;99.90;;;;;;5066780;28;272840;-66
2022/07/24 02:52:50;;;;;;;12.45;5.90;;;15.90;99.90;;;;;;4998591;28;129437;-66
2022/07/24 02:55:16;;;;;;;10.00;5.60;;;15.90;99.90;;;;;;5060749;28;52473;-65
2022/07/24 02:57:43;;;;;;;10.05;5.72;;;15.90;99.90;;;;;;5044669;28;207716;-65
2022/07/24 03:00:13;;;;;;;10.50;6.00;;;15.90;99.90;;;;;;5057334;28;146250;-66
2022/07/24 03:02:39;;;;;;;10.63;5.70;;;15.90;99.90;;;;;;5046829;28;210032;-66
2022/07/24 03:05:06;;;;;;;12.98;6.07;;;15.90;99.90;;;;;;5049017;28;259911;-66
2022/07/24 03:07:32;;;;;;;11.40;6.03;;;15.90;99.90;;;;;;5038382;28;210769;-66
2022/07/24 03:09:58;;;;;;;9.75;6.13;;;15.90;99.90;;;;;;5059836;28;52071;-65
2022/07/24 03:12:24;;;;;;;10.55;6.18;;;15.90;99.90;;;;;;5037024;28;211051;-66
2022/07/24 03:14:51;;;;;;;10.02;6.10;;;15.90;99.90;;;;;;5063293;28;255768;-66
2022/07/24 03:17:17;;;;;;;9.98;6.22;;;15.90;99.90;;;;;;5037637;28;209477;-65
2022/07/24 03:19:43;;;;;;;10.27;6.25;;;15.90;99.90;;;;;;5057019;28;139245;-66
2022/07/24 03:22:09;;;;;;;12.85;6.25;;;15.90;99.90;;;;;;5047502;28;211465;-71
2022/07/24 03:24:35;;;;;;;10.95;6.68;;;15.90;99.90;;;;;;5062108;28;268727;-66
2022/07/24 03:27:01;;;;;;;10.43;6.43;;;15.90;99.90;;;;;;5034493;28;218330;-66
2022/07/24 03:29:28;;;;;;;12.35;6.88;;;15.90;99.90;;;;;;5062924;28;261166;-66
2022/07/24 03:31:54;;;;;;;11.27;6.82;;;15.90;99.90;;;;;;5035476;28;212895;-66
2022/07/24 03:34:20;;;;;;;10.68;6.70;;;15.90;99.90;;;;;;5062050;28;264385;-65
2022/07/24 03:36:46;;;;;;;11.18;6.63;;;15.90;99.90;;;;;;5035405;28;214424;-65
2022/07/24 03:39:12;;;;;;;11.88;6.72;;;15.90;99.90;;;;;;5061966;28;269747;-65
2022/07/24 03:41:38;;;;;;;10.40;6.40;;;15.90;99.90;;;;;;5035188;28;213486;-65
2022/07/24 03:44:05;;;;;;;11.77;6.63;;;15.90;99.90;;;;;;5062462;28;253943;-64
2022/07/24 03:46:31;;;;;;;10.85;6.68;;;15.90;99.90;;;;;;5028328;28;208167;-65
2022/07/24 03:48:57;;;;;;;13.15;6.40;;;16.00;99.90;;;;;;5062361;28;265977;-65
2022/07/24 03:51:24;;;;;;;11.02;6.60;;;15.90;99.90;;;;;;5030330;28;223384;-65
2022/07/24 03:53:50;;;;;;;11.20;6.90;;;16.00;99.90;;;;;;5054488;28;279176;-66
2022/07/24 03:56:17;;;;;;;11.73;6.20;;;16.00;99.90;;;;;;5036025;28;210050;-66
2022/07/24 03:58:43;;;;;;;12.50;6.38;;;16.00;99.90;;;;;;5062538;28;268494;-66
2022/07/24 04:01:10;;;;;;;14.32;6.60;;;16.00;99.90;;;;;;5023283;28;206900;-67
2022/07/24 04:03:37;;;;;;;11.73;6.30;;;16.00;99.90;;;;;;5035113;28;274108;-65
2022/07/24 04:06:04;;;;;;;10.63;6.20;;;16.00;99.90;;;;;;5041751;28;208937;-66
2022/07/24 04:08:31;;;;;;;11.80;6.30;;;16.00;99.90;;;;;;5050419;28;255501;-66
2022/07/24 04:10:57;;;;;;;10.60;6.70;;;16.00;99.90;;;;;;5045123;28;209287;-66
2022/07/24 04:13:29;;;;;;;10.40;6.25;;;16.00;99.90;;;;;;5062633;28;260776;-66
2022/07/24 04:15:55;;;;;;;10.43;6.20;;;16.00;99.90;;;;;;5024342;28;207198;-66
2022/07/24 04:18:22;;;;;;;11.40;6.32;;;16.00;99.90;;;;;;5061850;28;268906;-66
2022/07/24 04:20:50;;;;;;;13.35;6.40;;;16.10;99.90;;;;;;5026736;28;206359;-66
2022/07/24 04:23:16;;;;;;;12.05;6.40;;;16.10;99.90;;;;;;5048351;28;255425;-66
2022/07/24 04:25:42;;;;;;;11.27;6.53;;;16.10;99.90;;;;;;5018116;28;214944;-66
2022/07/24 04:28:09;;;;;;;11.98;6.50;;;16.10;99.90;;;;;;5066773;28;20036;-66
2022/07/24 04:30:35;;;;;;;10.85;6.38;;;16.10;99.90;;;;;;5014435;28;265293;-66
2022/07/24 04:33:01;;;;;;;10.43;6.53;;;16.10;99.90;;;;;;5082966;28;20757;-63
2022/07/24 04:35:27;;;;;;;10.48;6.47;;;16.10;99.90;;;;;;5039480;28;267813;-66
2022/07/24 04:37:53;;;;;;;11.27;6.43;;;16.20;99.90;;;;;;5049984;28;209791;-66
2022/07/24 04:40:19;;;;;;;12.15;6.38;;;16.20;99.90;;;;;;5063624;28;270666;-66
2022/07/24 04:42:45;;;;;;;11.23;5.97;;;16.20;99.90;;;;;;5037446;28;204722;-66
2022/07/24 04:45:12;;;;;;;15.23;6.25;;;16.20;99.90;;;;;;5064105;28;265980;-66
2022/07/24 04:47:38;;;;;;;10.77;6.18;;;16.20;99.90;;;;;;5031949;28;224729;-65
2022/07/24 04:50:06;;;;;;;11.20;6.47;;;16.30;99.90;;;;;;5066718;28;271895;-66
2022/07/24 04:52:32;;;;;;;11.68;6.22;;;16.30;99.90;;;;;;5035897;28;209402;-66
2022/07/24 04:54:58;;;;;;;11.25;6.40;;;16.40;99.90;;;;;;5062848;28;265975;-66
2022/07/24 04:57:24;;;;;;;11.63;6.18;;;16.40;99.90;;;;;;5038287;28;209155;-66
2022/07/24 04:59:51;;;;;;;10.15;5.88;;;16.50;99.90;;;;;;5055579;28;143554;-66
2022/07/24 05:02:17;;;;;;;11.82;5.97;;;16.50;99.90;;;;;;5035112;28;101545;-65
2022/07/24 05:04:43;;;;;;;11.60;6.53;;;16.60;99.90;;;;;;5046475;28;273737;-65
2022/07/24 05:07:09;;;;;;;10.50;6.40;;;16.60;99.90;;;;;;5033697;28;209278;-66
2022/07/24 05:09:35;;;;;;;11.98;5.95;;;16.60;99.90;;;;;;5056209;28;98460;-66
2022/07/24 05:12:02;;;;;;;11.77;6.07;;;16.70;99.90;;;;;;5033357;28;212516;-66
2022/07/24 05:14:28;;;;;;;10.63;6.15;;;16.70;99.90;;;;;;5061346;28;253998;-66
2022/07/24 05:16:54;;;;;;;12.25;5.97;;;16.70;99.90;;;;;;5028117;28;206686;-65
2022/07/24 05:19:20;;;;;;;10.32;6.25;;;16.70;99.90;;;;;;5064927;28;268691;-66
2022/07/24 05:21:46;;;;;;;11.25;6.47;;;16.80;99.90;;;;;;5043835;28;209433;-66
2022/07/24 05:24:13;;;;;;;10.50;6.00;;;16.90;99.90;;;;;;5065070;28;265867;-66
2022/07/24 05:26:39;;;;;;;11.10;6.55;;;16.90;99.90;;;;;;5048708;28;209770;-66
2022/07/24 05:29:06;;;;;;;13.10;6.93;;;17.00;99.90;;;;;;5064249;28;269224;-66
2022/07/24 05:31:34;;;;;;;11.02;6.45;;;17.10;99.90;;;;;;5036426;28;218691;-66
2022/07/24 05:34:02;;;;;;;10.60;6.47;;;17.20;99.90;;;;;;5064938;28;263970;-67
2022/07/24 05:36:28;;;;;;;11.10;6.30;;;17.30;99.90;;;;;;5043108;28;211809;-64
2022/07/24 05:38:55;;;;;;;10.98;6.78;;;17.40;99.90;;;;;;5056501;28;180545;-66
2022/07/24 05:41:21;;;;;;;11.20;6.88;;;17.50;99.90;;;;;;5039471;28;211080;-66
2022/07/24 05:43:47;;;;;;;12.35;6.60;;;17.60;99.90;;;;;;5064556;28;278185;-67
2022/07/24 05:46:13;;;;;;;12.07;6.93;;;17.70;99.90;;;;;;5021779;28;222888;-66
2022/07/24 05:48:39;;;;;;;12.80;6.88;;;17.60;99.90;;;;;;5064849;28;264659;-67
2022/07/24 05:51:06;;;;;;;14.38;7.40;;;17.60;99.90;;;;;;5026568;28;201599;-67
2022/07/24 05:53:32;;;;;;;12.85;7.32;;;17.60;99.90;;;;;;5064897;28;268733;-66
2022/07/24 05:55:58;;;;;;;11.65;7.03;;;17.60;99.90;;;;;;5037288;28;224536;-67
2022/07/24 05:58:24;;;;;;;14.07;7.67;;;17.70;99.90;;;;;;5064835;28;248682;-68
2022/07/24 06:00:50;;;;;;;13.05;7.85;;;17.80;99.90;;;;;;5036123;28;213195;-68
2022/07/24 06:03:16;;;;;;;12.93;7.38;;;17.90;99.90;;;;;;5057141;28;277777;-65
2022/07/24 06:05:43;;;;;;;12.20;7.57;;;18.00;99.90;;;;;;5034240;28;220018;-67
2022/07/24 06:08:09;;;;;;;14.02;7.60;;;18.20;99.90;;;;;;5087289;28;20048;-67
2022/07/24 06:10:35;;;;;;;12.63;7.60;;;18.40;99.90;;;;;;5012036;28;224731;-67
2022/07/24 06:13:01;;;;;;;13.65;7.63;;;18.60;99.90;;;;;;5085752;28;20520;-67
2022/07/24 06:15:28;;;;;;;14.32;7.95;;;18.90;99.90;;;;;;5040968;28;256091;-67
2022/07/24 06:17:55;;;;;;;12.38;7.60;;;19.10;99.90;;;;;;5068425;28;207278;-66
2022/07/24 06:20:21;;;;;;;11.57;7.60;;;19.30;99.90;;;;;;5069462;28;218276;-66
2022/07/24 06:22:47;;;;;;;12.82;7.88;;;19.40;99.90;;;;;;5025099;28;213385;-67
2022/07/24 06:25:14;;;;;;;11.80;7.57;;;19.60;99.90;;;;;;5066993;28;266311;-67
2022/07/24 06:27:42;;;;;;;12.68;7.90;;;19.80;99.90;;;;;;5034925;28;213169;-67
2022/07/24 06:30:21;;;;;;;13.02;7.95;;;19.90;99.90;;;;;;5066556;28;260307;-66
2022/07/24 06:32:48;;;;;;;13.55;8.25;;;20.10;99.90;;;;;;5040825;28;207287;-66
2022/07/24 06:35:15;;;;;;;12.88;8.50;;;20.20;99.90;;;;;;5066819;28;261566;-67
2022/07/24 06:37:42;;;;;;;12.38;8.35;;;20.30;99.90;;;;;;5035611;28;216161;-67
2022/07/24 06:40:09;;;;;;;13.68;8.15;;;20.50;99.90;;;;;;5065835;28;275422;-67
2022/07/24 06:42:35;;;;;;;14.35;9.20;;;20.60;99.90;;;;;;5047423;28;221667;-67
2022/07/24 06:45:02;;;;;;;16.08;9.13;;;20.70;99.90;;;;;;5065302;28;259846;-67
2022/07/24 06:47:28;;;;;;;13.02;9.23;;;20.80;99.90;;;;;;5037000;28;212879;-67
2022/07/24 06:49:54;;;;;;;15.00;9.82;;;20.90;99.90;;;;;;5054774;28;217634;-68
2022/07/24 06:52:21;;;;;;;14.73;9.57;;;21.00;99.90;;;;;;5026114;28;207019;-67
2022/07/24 06:54:47;;;;;;;14.02;8.95;;;21.20;99.90;;;;;;5062851;28;268113;-67
2022/07/24 06:57:13;;;;;;;15.60;9.23;;;21.20;99.90;;;;;;5036590;28;209058;-67
2022/07/24 06:59:40;;;;;;;15.40;9.43;;;21.30;99.90;;;;;;5063317;28;258744;-67
2022/07/24 07:02:06;;;;;;;15.23;9.30;;;21.50;99.90;;;;;;5042766;28;210912;-67
2022/07/24 07:04:32;;;;;;;13.90;8.93;;;21.70;99.90;;;;;;5049187;28;261519;-68
2022/07/24 07:06:59;;;;;;;13.35;8.57;;;21.90;99.90;;;;;;5044259;28;212347;-67
2022/07/24 07:09:25;;;;;;;17.25;9.02;;;22.10;99.90;;;;;;5062674;28;265729;-67
2022/07/24 07:11:51;;;;;;;17.08;9.30;;;22.30;99.90;;;;;;5010460;28;206102;-68
2022/07/24 07:14:17;;;;;;;13.35;8.77;;;22.40;99.90;;;;;;5059279;28;265592;-67
2022/07/24 07:16:43;;;;;;;13.02;8.45;;;22.70;99.90;;;;;;5035428;28;219607;-67
2022/07/24 07:19:10;;;;;;;12.05;7.75;;;22.80;99.90;;;;;;5062558;28;268214;-67
2022/07/24 07:21:37;;;;;;;12.65;7.78;;;22.90;99.90;;;;;;5035835;28;209949;-68
2022/07/24 07:24:05;;;;;;;13.98;7.75;;;23.00;99.90;;;;;;5063244;28;252728;-67
2022/07/24 07:26:31;;;;;;;14.68;7.93;;;23.20;99.90;;;;;;5041993;28;221791;-67
2022/07/24 07:28:57;;;;;;;12.23;7.50;;;23.30;99.90;;;;;;5063146;28;252084;-67
2022/07/24 07:31:24;;;;;;;14.57;7.47;;;23.70;99.30;;;;;;5046146;28;214853;-68
2022/07/24 07:33:50;;;;;;;11.13;6.47;;;23.90;99.10;;;;;;5062555;28;262896;-67
2022/07/24 07:36:17;;;;;;;11.80;6.88;;;24.00;98.40;;;;;;5036561;28;216122;-68
2022/07/24 07:38:43;;;;;;;13.20;6.78;;;23.80;98.10;;;;;;5062012;28;264129;-68
2022/07/24 07:41:09;;;;;;;11.70;6.60;;;23.70;98.30;;;;;;5026653;28;209125;-66
2022/07/24 07:43:35;;;;;;;10.93;5.93;;;23.60;97.90;;;;;;5062593;28;255252;-68
2022/07/24 07:46:01;;;;;;;12.55;5.50;;;23.50;98.00;;;;;;5036489;28;211015;-68
2022/07/24 07:48:30;;;;;;;10.75;5.30;;;23.50;97.90;;;;;;5062526;28;254637;-68
2022/07/24 07:50:57;;;;;;;11.70;5.60;;;23.50;97.40;;;;;;5026683;28;180241;-68
2022/07/24 07:53:23;;;;;;;10.68;5.50;;;23.30;96.80;;;;;;5061560;28;274102;-68
2022/07/24 07:55:51;;;;;;;11.50;5.68;;;23.20;97.30;;;;;;5046195;28;212912;-67
2022/07/24 07:58:18;;;;;;;12.05;5.25;;;23.10;97.60;;;;;;5063215;28;234143;-68
2022/07/24 08:00:45;;;;;;;11.90;5.30;;;23.50;97.40;;;;;;5016950;28;230774;-68
2022/07/24 08:03:11;;;;;;;10.82;5.13;;;23.80;96.90;;;;;;5081896;28;20049;-68
2022/07/24 08:05:37;;;;;;;11.10;5.07;;;24.10;96.30;;;;;;4982856;28;256802;-68
2022/07/24 08:08:03;;;;;;;11.48;5.25;;;24.40;96.60;;;;;;5082107;28;20538;-68
2022/07/24 08:10:30;;;;;;;9.70;4.82;;;24.80;95.90;;;;;;5010208;28;217087;-66
2022/07/24 08:12:56;;;;;;;10.90;4.38;;;24.80;95.80;;;;;;5083647;28;20052;-68
2022/07/24 08:15:22;;;;;;;8.43;3.45;;;24.80;96.10;;;;;;5064494;28;277591;-68
2022/07/24 08:17:53;;;;;;;9.18;3.50;;;24.80;95.50;;;;;;5040245;28;210957;-67
2022/07/24 08:20:20;;;;;;;9.40;3.55;;;24.90;95.30;;;;;;5064605;28;273480;-68
2022/07/24 08:22:46;;;;;;;8.70;3.55;;;25.10;94.80;;;;;;5048038;28;170226;-68
2022/07/24 08:25:13;;;;;;;8.73;3.13;;;25.40;94.60;;;;;;5056408;28;211089;-68
2022/07/24 08:27:39;;;;;;;9.35;3.10;;;25.60;93.70;;;;;;5037056;28;210243;-68
2022/07/24 08:30:07;;;;;;;10.60;3.60;;;25.40;93.10;;;;;;5057036;28;101803;-68
2022/07/24 08:32:33;;;;;;;8.77;3.30;;;25.40;93.50;;;;;;5035496;28;219066;-68
2022/07/24 08:35:00;;;;;;;9.45;3.78;;;25.10;93.30;;;;;;5055371;28;140499;-68
2022/07/24 08:37:26;;;;;;;10.25;3.50;;;25.10;93.30;;;;;;5037532;28;213493;-68
2022/07/24 08:39:54;;;;;;;9.85;3.63;;;25.00;93.70;;;;;;5057006;28;88155;-68
2022/07/24 08:42:21;;;;;;;8.50;3.58;;;25.40;93.90;;;;;;5027187;28;210027;-66
2022/07/24 08:44:47;;;;;;;9.00;3.13;;;25.80;93.80;;;;;;5061182;28;269504;-69
2022/07/24 08:47:15;;;;;;;8.45;3.60;;;26.00;93.50;;;;;;5025472;28;206563;-68
2022/07/24 08:49:44;;;;;;;7.82;3.30;;;26.00;92.70;;;;;;5060917;28;274203;-69
2022/07/24 08:52:10;;;;;;;9.40;3.42;;;26.00;92.40;;;;;;5035095;28;213015;-68
2022/07/24 08:54:36;;;;;;;9.18;3.40;;;25.80;92.70;;;;;;5062084;28;261476;-68
2022/07/24 08:57:03;;;;;;;9.75;2.97;;;25.80;92.50;;;;;;5022702;28;207080;-67
2022/07/24 08:59:30;;;;;;;9.15;3.30;;;25.90;92.60;;;;;;5061231;28;260822;-68
2022/07/24 09:01:56;;;;;;;7.93;2.97;;;26.30;91.90;;;;;;5035447;28;215964;-68
2022/07/24 09:04:38;;;;;;;7.40;2.90;;;26.90;92.20;;;;;;5045939;28;277414;-68
2022/07/24 09:07:07;;;;;;;7.70;2.83;;;27.20;89.60;;;;;;5039080;28;209216;-68
2022/07/24 09:09:34;;;;;;;7.53;2.90;;;27.10;90.30;;;;;;5060210;28;274166;-68
2022/07/24 09:12:13;;;;;;;7.53;3.00;;;27.20;90.20;;;;;;5043243;28;213266;-69
2022/07/24 09:14:43;;;;;;;7.97;3.10;;;27.20;89.60;;;;;;5052341;28;189864;-68
2022/07/24 09:17:11;;;;;;;;;;;27.00;89.70;;;;;;5037190;28;210723;-68
2022/07/24 09:19:46;;;;;;;7.68;2.55;;;26.90;87.30;;;;;;5061376;28;256392;-68
2022/07/24 09:22:36;;;;;;;7.38;2.63;;;26.80;89.10;;;;;;5032641;28;210103;-68
2022/07/24 09:25:11;;;;;;;;;;;26.80;88.50;;;;;;4974878;28;179943;-69
2022/07/24 09:27:50;;;;;;;9.85;2.42;;;26.80;87.70;;;;;;4957031;28;207090;-69
2022/07/24 09:30:31;;;;;;;8.63;2.65;;;26.70;88.40;;;;;;4974118;28;169840;-68
2022/07/24 09:33:07;;;;;;;7.70;2.75;;;26.70;88.00;;;;;;4962578;28;206856;-68
2022/07/24 09:35:42;;;;;;;8.05;2.97;;;26.30;90.00;;;;;;4930845;28;219694;-68
2022/07/24 09:38:13;;;;;;;8.27;2.60;;;26.40;90.30;;;;;;4975243;28;20058;-68
2022/07/24 09:40:46;;;;;;;9.50;2.58;;;26.60;90.10;;;;;;4944835;28;209307;-68
2022/07/24 09:43:22;;;;;;;7.07;2.70;;;26.60;88.60;;;;;;4993191;28;20061;-68
2022/07/24 09:45:57;;;;;;;9.35;2.90;;;26.80;88.30;;;;;;4950176;28;210122;-69
2022/07/24 09:48:39;;;;;;;7.93;2.60;;;27.10;87.50;;;;;;4988008;28;164531;-68
2022/07/24 09:51:14;;;;;;;10.23;2.88;;;27.20;87.70;;;;;;4949836;28;206828;-69
2022/07/24 09:53:42;;;;;;;10.10;2.70;;;27.30;86.90;;;;;;4973850;28;252254;-69
2022/07/24 09:56:14;;;;;;;6.90;2.50;;;27.50;87.30;;;;;;4945547;28;185365;-68
2022/07/24 09:58:45;;;;;;;7.95;2.53;;;27.90;88.90;;;;;;4960395;28;176173;-69
2022/07/24 10:01:13;;;;;;;7.82;2.20;;;28.20;86.50;;;;;;4948398;28;208766;-69
2022/07/24 10:03:42;;;;;;;8.75;2.45;;;28.60;85.10;;;;;;5027960;28;261736;-70
2022/07/24 10:06:11;;;;;;;7.82;2.50;;;28.30;83.60;;;;;;5037904;28;208330;-69
2022/07/24 10:08:40;;;;;;;7.03;2.15;;;28.40;83.50;;;;;;5064247;28;273362;-69
2022/07/24 10:11:06;;;;;;;7.43;2.20;;;28.50;81.10;;;;;;5036774;28;211355;-69
2022/07/24 10:13:34;;;;;;;8.45;2.33;;;28.80;81.10;;;;;;5052150;28;264197;-69
2022/07/24 10:16:00;;;;;;;8.85;2.65;;;29.00;80.00;;;;;;5037977;28;222511;-68
2022/07/24 10:18:46;;;;;;;9.10;2.40;;;29.10;78.90;;;;;;5064306;28;270985;-70
2022/07/24 10:21:20;;;;;;;7.47;2.17;;;29.20;77.20;;;;;;5041864;28;215845;-69
2022/07/24 10:24:12;;;;;;;8.15;2.80;;;29.10;78.20;;;;;;5054680;28;219801;-70
2022/07/24 10:26:42;;;;;;;8.80;2.13;;;29.60;75.90;;;;;;5041327;28;230945;-69
2022/07/24 10:29:17;;;;;;;10.18;2.33;;;29.80;76.60;;;;;;5061679;28;20051;-70
2022/07/24 10:31:44;;;;;;;8.35;2.33;;;29.80;73.10;;;;;;5037096;28;230166;-68
2022/07/24 10:34:25;;;;;;;8.88;2.33;;;29.20;73.90;;;;;;5052424;28;271904;-69
2022/07/24 10:37:09;;;;;;;7.70;2.30;;;29.10;74.60;;;;;;5035850;28;209175;-70
2022/07/24 10:40:03;;;;;;;7.93;2.40;;;29.10;75.20;;;;;;5055039;28;203118;-69
2022/07/24 10:42:29;;;;;;;6.53;1.90;;;29.10;73.30;;;;;;5036927;28;223567;-69
2022/07/24 10:45:30;;;;;;;8.18;2.20;;;28.80;72.60;;;;;;5061828;28;22159;-68
2022/07/24 10:47:57;;;;;;;6.80;2.17;;;28.70;72.70;;;;;;4986893;28;206240;-69
2022/07/24 10:50:23;;;;;;;7.75;2.15;;;28.60;74.20;;;;;;5000337;28;43384;-69
2022/07/24 10:52:49;;;;;;;7.90;2.20;;;28.40;74.60;;;;;;4987282;28;208957;-69
2022/07/24 10:55:34;;;;;;;8.35;2.20;;;28.50;75.80;;;;;;5012069;28;171582;-69
2022/07/24 10:58:01;;;;;;;7.15;2.22;;;28.60;76.10;;;;;;4973025;28;198487;-68
2022/07/24 11:00:40;;;;;;;7.32;2.20;;;28.60;75.70;;;;;;4989822;28;151245;-67
2022/07/24 11:03:19;;;;;;;7.72;2.30;;;29.00;75.10;;;;;;4996197;28;207769;-69
2022/07/24 11:06:02;;;;;;;6.25;2.00;;;29.10;73.80;;;;;;4941803;28;207423;-67
2022/07/24 11:08:36;;;;;;;8.88;2.20;;;28.90;72.50;;;;;;5011335;28;135436;-69
2022/07/24 11:11:07;;;;;;;7.07;2.22;;;29.20;74.30;;;;;;4986147;28;162304;-69
2022/07/24 11:13:33;;;;;;;7.93;2.20;;;29.70;73.00;;;;;;5016055;28;29001;-69
2022/07/24 11:16:15;;;;;;;7.38;2.30;;;29.80;71.90;;;;;;4984809;28;206746;-70
2022/07/24 11:18:54;;;;;;;6.47;2.00;;;30.10;69.20;;;;;;5017078;28;20507;-69
2022/07/24 11:21:36;;;;;;;6.45;2.03;;;29.90;70.00;;;;;;4961381;28;212765;-69
2022/07/24 11:24:21;;;;;;;8.57;2.50;;;29.70;70.40;;;;;;5043362;28;271041;-69
2022/07/24 11:27:13;;;;;;;8.43;2.45;;;30.10;69.80;;;;;;5026705;28;207430;-69
2022/07/24 11:29:39;;;;;;;7.70;2.30;;;30.30;69.00;;;;;;5063228;28;267208;-69
2022/07/24 11:32:17;;;;;;;8.05;2.20;;;30.60;69.00;;;;;;5022199;28;219378;-70
2022/07/24 11:34:46;;;;;;;8.75;2.38;;;30.90;66.70;;;;;;5062199;28;274148;-71
2022/07/24 11:37:13;;;;;;;8.43;2.15;;;30.40;66.60;;;;;;5040587;28;214171;-71
2022/07/24 11:39:42;;;;;;;8.18;2.40;;;30.20;68.90;;;;;;5062809;28;261296;-69
2022/07/24 11:42:11;;;;;;;7.10;2.00;;;30.60;67.40;;;;;;5025757;28;205898;-69
2022/07/24 11:44:42;;;;;;;6.57;2.10;;;30.60;66.80;;;;;;5055686;28;155630;-70
2022/07/24 11:47:13;;;;;;;7.15;2.05;;;30.80;65.00;;;;;;5037063;28;216105;-70
2022/07/24 11:49:42;;;;;;;5.60;1.80;;;30.80;64.50;;;;;;5052603;28;234567;-70
2022/07/24 11:52:26;;;;;;;7.63;2.00;;;31.00;65.00;;;;;;5025764;28;205301;-69
2022/07/24 11:54:55;;;;;;;6.53;2.10;;;30.80;63.00;;;;;;5062046;28;251150;-69
2022/07/24 11:57:24;;;;;;;6.85;2.03;;;30.50;63.80;;;;;;5034239;28;221422;-69
2022/07/24 11:59:51;;;;;;;8.32;2.03;;;30.20;64.40;;;;;;5062023;28;267069;-70
2022/07/24 12:02:19;;;;;;;7.28;1.90;;;30.50;64.20;;;;;;5039584;28;216903;-69
2022/07/24 12:04:47;;;;;;;7.43;2.10;;;30.60;63.50;;;;;;5054035;28;264360;-70
2022/07/24 12:07:17;;;;;;;9.38;2.35;;;30.50;63.60;;;;;;5044599;28;210470;-70
2022/07/24 12:09:44;;;;;;;8.57;2.40;;;31.00;64.30;;;;;;5062043;28;253387;-70
2022/07/24 12:12:21;;;;;;;9.02;2.03;;;31.50;64.80;;;;;;5035296;28;212771;-70
2022/07/24 12:14:50;;;;;;;7.57;2.33;;;31.80;62.70;;;;;;5061370;28;253763;-70
2022/07/24 12:17:16;;;;;;;8.10;2.20;;;32.00;62.50;;;;;;5035730;28;212595;-70
2022/07/24 12:19:51;;;;;;;8.32;2.05;;;32.20;61.20;;;;;;5069625;28;108825;-70
2022/07/24 12:22:19;;;;;;;6.72;2.05;;;32.00;60.90;;;;;;5032734;28;210388;-70
2022/07/24 12:24:45;;;;;;;7.22;2.15;;;31.90;60.40;;;;;;5051834;28;218103;-69
2022/07/24 12:27:11;;;;;;;8.77;1.92;;;31.90;60.90;;;;;;5040442;28;210137;-70
2022/07/24 12:29:44;;;;;;;8.90;2.10;;;31.90;59.90;;;;;;5062237;28;266370;-70
2022/07/24 12:32:17;;;;;;;7.47;1.98;;;31.80;58.10;;;;;;5037424;28;210964;-69
2022/07/24 12:34:45;;;;;;;6.88;2.30;;;31.80;59.20;;;;;;5061130;28;269427;-70
2022/07/24 12:37:19;;;;;;;9.27;2.20;;;32.10;58.70;;;;;;5022670;28;213497;-70
2022/07/24 12:39:50;;;;;;;8.25;2.40;;;32.20;59.20;;;;;;5061813;28;261136;-69